Alyeska Resort
Hourly Weather - Base Weather Site
ALY_BASE_HR 10/1/2016
CLICK TO VIEW GRAPH!!

        DATE  TIME   Air  BATT   H2o   H2o   Rel
                    Temp  Volt  Inch Since  Hum%
                      F   AVG   1HR  0600   AVG

   10/1/2016 03:00    37 13.95  0.00  0.00    86
   10/1/2016 02:00    38 13.95  0.00  0.00    84
   10/1/2016 01:00    38 13.94  0.00  0.00    88
   9/30/2016 24:00    38 13.92  0.00  0.00    89
   9/30/2016 23:00    39 13.90  0.00  0.00    89
   9/30/2016 22:00    39 13.86  0.00  0.00    87
   9/30/2016 21:00    41 13.80  0.00  0.00    86
   9/30/2016 20:00    44 13.70  0.00  0.00    85
   9/30/2016 19:00    51 13.62  0.00  0.00    74
   9/30/2016 18:00    52 13.60  0.00  0.00    70
   9/30/2016 17:00    53 13.60  0.00  0.00    70
   9/30/2016 16:00    53 13.62  0.00  0.00    68
   9/30/2016 15:00    55 13.67  0.00  0.00    60
   9/30/2016 14:00    51 13.80  0.00  0.00    68
   9/30/2016 13:00    41 13.95  0.00  0.00    87
   9/30/2016 12:00    38 13.98  0.00  0.00    94
   9/30/2016 11:00    36 14.00  0.00  0.00    96
   9/30/2016 10:00    35 14.01  0.00  0.00    96
   9/30/2016 09:00    34 14.02  0.00  0.00    96
   9/30/2016 08:00    34 14.01  0.00  0.00    96
   9/30/2016 07:00    34 14.01  0.00  0.00    96
   9/30/2016 06:00    35 14.01  0.00  0.00    96
   9/30/2016 05:00    35 14.00  0.00  0.00    96
   9/30/2016 04:00    35 14.00  0.00  0.00    96


CLICK TO VIEW GRAPH!!